createdAt,value
2022-10-22T00:00:35.845Z,99958.00
2022-10-22T00:03:08.455Z,99955.63
2022-10-22T00:05:39.963Z,99959.66
2022-10-22T00:08:09.868Z,99967.66
2022-10-22T00:10:48.755Z,99969.94
2022-10-22T00:13:18.879Z,99988.19
2022-10-22T00:15:51.897Z,99995.81
2022-10-22T00:18:24.385Z,99997.38
2022-10-22T00:20:56.317Z,99996.16
2022-10-22T00:23:26.004Z,99990.59
2022-10-22T00:25:58.998Z,99992.56
2022-10-22T00:28:28.672Z,99988.94
2022-10-22T00:31:00.478Z,99997.97
2022-10-22T00:33:35.089Z,99995.19
2022-10-22T00:36:04.757Z,99978.03
2022-10-22T00:38:34.739Z,99981.66
2022-10-22T00:41:04.734Z,99986.34
2022-10-22T00:43:35.073Z,99997.50
2022-10-22T00:46:04.688Z,99987.19
2022-10-22T00:48:37.186Z,99980.81
2022-10-22T00:51:11.457Z,99974.03
2022-10-22T00:53:44.527Z,99967.28
2022-10-22T00:56:17.638Z,99978.75
2022-10-22T00:58:50.656Z,99982.75
2022-10-22T01:01:24.909Z,99995.44
2022-10-22T01:03:58.231Z,100008.94
2022-10-22T01:06:31.612Z,99997.88
2022-10-22T01:09:15.534Z,99979.97
2022-10-22T01:11:58.207Z,99985.53
2022-10-22T01:14:36.792Z,99987.13
2022-10-22T01:17:14.013Z,99970.88
2022-10-22T01:20:02.233Z,99969.25
2022-10-22T01:22:35.483Z,99983.91
2022-10-22T01:25:11.997Z,99973.16
2022-10-22T01:28:00.619Z,99954.09
2022-10-22T01:30:34.075Z,99965.22
2022-10-22T01:33:10.683Z,99974.41
2022-10-22T01:35:45.354Z,99991.81
2022-10-22T01:38:20.201Z,99984.66
2022-10-22T01:40:51.136Z,99975.22
2022-10-22T01:43:23.837Z,99978.41
2022-10-22T01:46:01.591Z,99968.84
2022-10-22T01:48:48.116Z,99976.03
2022-10-22T01:51:36.451Z,99979.19
2022-10-22T01:54:12.622Z,99979.53
2022-10-22T01:56:56.705Z,99979.09
2022-10-22T01:59:38.364Z,99979.94
2022-10-22T02:02:27.210Z,99980.78
2022-10-22T02:05:01.782Z,99976.75
2022-10-22T02:07:39.049Z,99979.41
2022-10-22T02:10:12.182Z,99968.75
2022-10-22T02:12:44.777Z,99961.66
2022-10-22T02:15:18.785Z,99965.63
2022-10-22T02:17:54.203Z,99967.66
2022-10-22T02:20:32.887Z,99971.69
2022-10-22T02:23:03.770Z,99978.91
2022-10-22T02:25:38.274Z,99981.75
2022-10-22T02:28:16.227Z,99973.38
2022-10-22T02:30:50.953Z,99970.28
2022-10-22T02:33:29.789Z,99963.91
2022-10-22T02:36:03.553Z,99968.75
2022-10-22T02:38:35.741Z,99966.06
2022-10-22T02:41:07.339Z,99968.06
2022-10-22T02:43:48.254Z,99974.47
2022-10-22T02:46:18.341Z,99985.69
2022-10-22T02:48:51.562Z,99978.16
2022-10-22T02:51:21.553Z,99978.88
2022-10-22T02:53:51.502Z,99979.69
2022-10-22T02:56:21.638Z,99983.72
2022-10-22T02:58:51.832Z,99984.13
2022-10-22T03:01:21.896Z,99982.91
2022-10-22T03:03:54.604Z,99994.41
2022-10-22T03:09:15.960Z,99996.81
2022-10-22T03:11:47.290Z,99992.94
2022-10-22T03:14:25.158Z,100004.78
2022-10-22T03:16:55.204Z,99998.84
2022-10-22T03:19:27.733Z,99991.69
2022-10-22T03:22:00.304Z,99998.06
2022-10-22T03:24:34.508Z,99989.81
2022-10-22T03:27:04.849Z,99999.69
2022-10-22T03:29:39.148Z,100002.00
2022-10-22T03:32:09.603Z,100009.25
2022-10-22T03:34:42.105Z,100008.06
2022-10-22T03:37:13.697Z,100013.66
2022-10-22T03:39:44.294Z,100015.69
2022-10-22T03:42:16.444Z,100023.19
2022-10-22T03:44:46.804Z,100014.88
2022-10-22T03:47:17.567Z,100029.97
2022-10-22T03:49:50.139Z,100023.19
2022-10-22T03:52:20.130Z,100024.78
2022-10-22T03:54:49.703Z,100031.19
2022-10-22T03:57:19.605Z,100038.75
2022-10-22T03:59:51.083Z,100036.75
2022-10-22T04:02:21.836Z,100043.47
2022-10-22T04:04:54.378Z,100046.69
2022-10-22T04:07:24.049Z,100045.56
2022-10-22T04:09:55.901Z,100046.78
2022-10-22T04:12:26.015Z,100046.47
2022-10-22T04:14:57.235Z,100037.75
2022-10-22T04:17:27.092Z,100048.84
2022-10-22T04:19:59.794Z,100051.97
2022-10-22T04:22:29.917Z,100055.91
2022-10-22T04:25:02.641Z,100057.53
2022-10-22T04:27:37.930Z,100069.03
2022-10-22T04:30:11.696Z,100057.91
2022-10-22T04:32:41.608Z,100065.44
2022-10-22T04:35:15.217Z,100066.59
2022-10-22T04:37:45.160Z,100062.59
2022-10-22T04:40:16.270Z,100068.53
2022-10-22T04:42:49.050Z,100060.69
2022-10-22T04:45:19.137Z,100071.44
2022-10-22T04:47:49.165Z,100074.19
2022-10-22T04:50:23.439Z,100077.41
2022-10-22T04:52:55.245Z,100067.41
2022-10-22T04:55:25.251Z,100073.81
2022-10-22T04:57:55.367Z,100062.75
2022-10-22T05:00:25.174Z,100065.91
2022-10-22T05:02:54.995Z,100063.94
2022-10-22T05:05:31.720Z,100058.38
2022-10-22T05:08:05.736Z,100053.63
2022-10-22T05:10:35.910Z,100058.78
2022-10-22T05:13:08.923Z,100053.28
2022-10-22T05:15:42.652Z,100060.41
2022-10-22T05:18:12.796Z,100054.06
2022-10-22T05:20:46.612Z,100059.66
2022-10-22T05:23:16.617Z,100059.28
2022-10-22T05:25:46.437Z,100076.72
2022-10-22T05:28:16.625Z,100081.47
2022-10-22T05:30:56.439Z,100083.84
2022-10-22T05:33:26.502Z,100076.72
2022-10-22T05:35:59.333Z,100081.09
2022-10-22T05:38:29.432Z,100080.72
2022-10-22T05:41:03.513Z,100094.97
2022-10-22T05:43:33.822Z,100085.84
2022-10-22T05:46:06.621Z,100088.19
2022-10-22T05:48:39.404Z,100089.75
2022-10-22T05:51:14.165Z,100087.34
2022-10-22T05:53:45.413Z,100096.03
2022-10-22T05:56:17.265Z,100096.78
2022-10-22T05:58:47.989Z,100101.97
2022-10-22T06:01:20.103Z,100099.16
2022-10-22T06:03:51.677Z,100101.94
2022-10-22T06:06:29.260Z,100103.53
2022-10-22T06:09:06.358Z,100113.09
2022-10-22T06:11:41.899Z,100107.88
2022-10-22T06:14:14.001Z,100112.66
2022-10-22T06:16:44.392Z,100107.94
2022-10-22T06:19:15.740Z,100117.47
2022-10-22T06:21:48.998Z,100121.03
2022-10-22T06:24:22.346Z,100116.66
2022-10-22T06:26:55.306Z,100110.66
2022-10-22T06:29:25.716Z,100120.09
2022-10-22T06:31:56.968Z,100116.09
2022-10-22T06:34:29.208Z,100120.47
2022-10-22T06:37:02.762Z,100131.56
2022-10-22T06:39:33.554Z,100130.03
2022-10-22T06:42:03.267Z,100134.34
2022-10-22T06:44:33.212Z,100150.22
2022-10-22T06:47:03.228Z,100157.38
2022-10-22T06:49:32.963Z,100164.50
2022-10-22T06:52:05.421Z,100163.31
2022-10-22T06:54:35.090Z,100158.50
2022-10-22T06:57:05.579Z,100161.69
2022-10-22T06:59:35.752Z,100162.41
2022-10-22T07:02:05.851Z,100169.16
2022-10-22T07:04:35.536Z,100177.06
2022-10-22T07:07:09.330Z,100177.84
2022-10-22T07:09:39.546Z,100186.19
2022-10-22T07:12:09.765Z,100184.56
2022-10-22T07:14:42.175Z,100194.41
2022-10-22T07:17:12.170Z,100194.75
2022-10-22T07:19:41.941Z,100189.97
2022-10-22T07:22:15.243Z,100198.28
2022-10-22T07:24:47.438Z,100192.66
2022-10-22T07:27:17.505Z,100203.84
2022-10-22T07:29:49.373Z,100214.13
2022-10-22T07:32:23.705Z,100213.69
2022-10-22T07:34:53.765Z,100204.09
2022-10-22T07:37:26.379Z,100211.19
2022-10-22T07:39:58.371Z,100212.31
2022-10-22T07:42:31.312Z,100219.84
2022-10-22T07:45:01.249Z,100215.78
2022-10-22T07:47:33.176Z,100211.63
2022-10-22T07:50:03.124Z,100213.09
2022-10-22T07:52:36.021Z,100207.66
2022-10-22T07:55:06.740Z,100206.31
2022-10-22T07:57:37.267Z,100198.66
2022-10-22T08:00:07.695Z,100200.16
2022-10-22T08:02:39.097Z,100189.31
2022-10-22T08:05:13.471Z,100201.53
2022-10-22T08:07:46.928Z,100200.44
2022-10-22T08:10:17.419Z,100200.38
2022-10-22T08:12:47.254Z,100212.28
2022-10-22T08:15:21.510Z,100220.88
2022-10-22T08:17:51.684Z,100214.91
2022-10-22T08:20:22.218Z,100219.72
2022-10-22T08:22:55.594Z,100208.91
2022-10-22T08:25:26.134Z,100209.19
2022-10-22T08:27:56.590Z,100214.47
2022-10-22T08:30:27.890Z,100221.66
2022-10-22T08:33:01.372Z,100221.34
2022-10-22T08:35:37.378Z,100223.59
2022-10-22T08:38:12.148Z,100220.66
2022-10-22T08:40:43.462Z,100207.06
2022-10-22T08:43:49.208Z,100223.72
2022-10-22T08:46:28.625Z,100222.28
2022-10-22T08:49:00.657Z,100217.38
2022-10-22T08:51:35.914Z,100221.44
2022-10-22T08:54:31.097Z,100214.88
2022-10-22T08:57:21.796Z,100211.53
2022-10-22T09:00:00.542Z,100212.16
2022-10-22T09:02:42.707Z,100214.16
2022-10-22T09:05:31.437Z,100216.97
2022-10-22T09:08:02.391Z,100212.19
2022-10-22T09:10:40.070Z,100225.84
2022-10-22T09:13:12.926Z,100219.38
2022-10-22T09:15:45.036Z,100213.59
2022-10-22T09:18:31.433Z,100221.91
2022-10-22T09:21:09.737Z,100222.16
2022-10-22T09:23:50.485Z,100225.22
2022-10-22T09:26:24.516Z,100223.47
2022-10-22T09:28:55.203Z,100228.63
2022-10-22T09:31:30.555Z,100220.66
2022-10-22T09:34:05.952Z,100220.97
2022-10-22T09:36:36.270Z,100221.19
2022-10-22T09:39:06.823Z,100223.06
2022-10-22T09:41:40.128Z,100234.63
2022-10-22T09:44:10.534Z,100226.31
2022-10-22T09:46:45.758Z,100238.91
2022-10-22T09:49:18.145Z,100233.34
2022-10-22T09:51:55.602Z,100235.56
2022-10-22T09:54:27.309Z,100235.34
2022-10-22T09:57:06.410Z,100231.47
2022-10-22T09:59:41.849Z,100249.66
2022-10-22T10:02:20.607Z,100247.69
2022-10-22T10:05:05.922Z,100238.56
2022-10-22T10:07:37.831Z,100253.84
2022-10-22T10:10:22.441Z,100262.56
2022-10-22T10:13:04.174Z,100260.09
2022-10-22T10:15:40.341Z,100267.13
2022-10-22T10:18:27.132Z,100264.31
2022-10-22T10:21:07.336Z,100269.25
2022-10-22T10:23:45.373Z,100273.03
2022-10-22T10:26:22.634Z,100275.38
2022-10-22T10:29:16.897Z,100264.44
2022-10-22T10:32:00.453Z,100274.44
2022-10-22T10:34:40.393Z,100285.56
2022-10-22T10:37:23.992Z,100284.06
2022-10-22T10:40:15.013Z,100281.63
2022-10-22T10:42:50.825Z,100287.31
2022-10-22T10:45:30.119Z,100299.72
2022-10-22T10:48:35.008Z,100285.38
2022-10-22T10:51:11.805Z,100289.91
2022-10-22T10:54:03.585Z,100287.22
2022-10-22T10:56:42.086Z,100291.66
2022-10-22T10:59:21.294Z,100296.72
2022-10-22T11:02:18.333Z,100308.94
2022-10-22T11:05:10.424Z,100307.78
2022-10-22T11:07:48.046Z,100297.91
2022-10-22T11:10:31.119Z,100292.59
2022-10-22T11:13:08.961Z,100303.03
2022-10-22T11:15:41.388Z,100295.91
2022-10-22T11:18:24.425Z,100293.84
2022-10-22T11:21:10.994Z,100281.44
2022-10-22T11:23:45.739Z,100289.44
2022-10-22T11:26:23.122Z,100293.53
2022-10-22T11:28:56.422Z,100286.94
2022-10-22T11:31:28.930Z,100292.16
2022-10-22T11:34:28.852Z,100298.38
2022-10-22T11:37:03.218Z,100307.34
2022-10-22T11:39:48.393Z,100302.63
2022-10-22T11:42:24.641Z,100300.63
2022-10-22T11:45:05.897Z,100298.59
2022-10-22T11:47:37.971Z,100297.59
2022-10-22T11:50:26.489Z,100298.59
2022-10-22T11:53:05.867Z,100303.69
2022-10-22T11:55:48.905Z,100292.28
2022-10-22T11:58:39.412Z,100300.91
2022-10-22T12:01:25.196Z,100317.09
2022-10-22T12:03:58.659Z,100296.53
2022-10-22T12:06:32.282Z,100303.91
2022-10-22T12:09:05.998Z,100304.81
2022-10-22T12:11:41.131Z,100303.41
2022-10-22T12:14:26.782Z,100306.44
2022-10-22T12:17:00.242Z,100295.22
2022-10-22T12:19:34.106Z,100301.53
2022-10-22T12:22:19.303Z,100303.66
2022-10-22T12:24:56.090Z,100298.63
2022-10-22T12:27:28.100Z,100293.63
2022-10-22T12:29:59.738Z,100300.38
2022-10-22T12:32:38.543Z,100292.31
2022-10-22T12:35:12.896Z,100287.63
2022-10-22T12:37:45.729Z,100287.50
2022-10-22T12:40:24.520Z,100288.06
2022-10-22T12:42:57.229Z,100289.50
2022-10-22T12:45:32.912Z,100285.25
2022-10-22T12:48:06.924Z,100280.63
2022-10-22T12:50:40.492Z,100283.16
2022-10-22T12:53:18.214Z,100283.84
2022-10-22T12:55:51.206Z,100281.94
2022-10-22T12:58:24.208Z,100290.28
2022-10-22T13:00:58.809Z,100288.84
2022-10-22T13:03:38.694Z,100284.44
2022-10-22T13:06:27.341Z,100285.19
2022-10-22T13:09:10.491Z,100285.47
2022-10-22T13:11:44.293Z,100283.00
2022-10-22T13:14:22.839Z,100285.69
2022-10-22T13:17:10.770Z,100284.16
2022-10-22T13:19:44.491Z,100285.56
2022-10-22T13:22:31.121Z,100279.81
2022-10-22T13:25:22.459Z,100289.72
2022-10-22T13:27:55.551Z,100283.06
2022-10-22T13:30:28.145Z,100294.22
2022-10-22T13:33:00.726Z,100288.00
2022-10-22T13:35:33.343Z,100283.50
2022-10-22T13:38:03.471Z,100287.94
2022-10-22T13:40:37.596Z,100286.53
2022-10-22T13:43:07.901Z,100291.63
2022-10-22T13:45:37.858Z,100286.91
2022-10-22T13:48:08.502Z,100298.44
2022-10-22T13:50:38.894Z,100299.78
2022-10-22T13:53:09.720Z,100304.50
2022-10-22T13:55:42.718Z,100299.09
2022-10-22T13:58:15.574Z,100299.44
2022-10-22T14:00:50.521Z,100306.19
2022-10-22T14:03:24.054Z,100292.75
2022-10-22T14:05:53.939Z,100296.03
2022-10-22T14:08:26.498Z,100290.84
2022-10-22T14:10:59.794Z,100284.78
2022-10-22T14:13:31.257Z,100291.63
2022-10-22T14:16:01.206Z,100287.97
2022-10-22T14:18:33.467Z,100289.63
2022-10-22T14:21:07.883Z,100284.22
2022-10-22T14:23:39.180Z,100292.91
2022-10-22T14:26:18.554Z,100293.88
2022-10-22T14:29:08.658Z,100298.44
2022-10-22T14:34:13.110Z,100301.75
2022-10-22T14:36:43.942Z,100311.09
2022-10-22T14:39:15.848Z,100299.19
2022-10-22T14:41:50.431Z,100296.00
2022-10-22T14:44:21.079Z,100294.63
2022-10-22T14:46:54.501Z,100293.22
2022-10-22T14:49:24.589Z,100304.75
2022-10-22T14:51:54.485Z,100301.22
2022-10-22T14:54:25.223Z,100310.63
2022-10-22T14:56:58.148Z,100335.31
2022-10-22T14:59:28.519Z,100332.50
2022-10-22T15:01:58.457Z,100341.94
2022-10-22T15:04:30.711Z,100350.03
2022-10-22T15:07:02.585Z,100342.75
2022-10-22T15:09:33.364Z,100347.34
2022-10-22T15:12:06.322Z,100346.28
2022-10-22T15:14:36.162Z,100341.13
2022-10-22T15:17:08.555Z,100346.06
2022-10-22T15:19:38.644Z,100345.41
2022-10-22T15:22:08.825Z,100341.00
2022-10-22T15:24:39.184Z,100348.94
2022-10-22T15:27:13.885Z,100340.13
2022-10-22T15:29:44.988Z,100344.81
2022-10-22T15:32:14.953Z,100347.63
2022-10-22T15:34:44.968Z,100356.44
2022-10-22T15:37:16.405Z,100352.16
2022-10-22T15:39:46.604Z,100355.31
2022-10-22T15:42:20.339Z,100364.59
2022-10-22T15:44:50.804Z,100368.03
2022-10-22T15:47:20.713Z,100373.34
2022-10-22T15:49:51.569Z,100375.47
2022-10-22T15:52:21.649Z,100383.25
2022-10-22T15:54:51.649Z,100385.81
2022-10-22T15:57:24.754Z,100382.53
2022-10-22T15:59:54.628Z,100386.06
2022-10-22T16:02:24.425Z,100398.44
2022-10-22T16:04:54.207Z,100388.16
2022-10-22T16:07:26.038Z,100397.09
2022-10-22T16:10:00.212Z,100394.78
2022-10-22T16:12:33.120Z,100402.44
2022-10-22T16:15:05.006Z,100398.66
2022-10-22T16:17:34.999Z,100401.78
2022-10-22T16:20:07.530Z,100401.00
2022-10-22T16:22:43.483Z,100399.88
2022-10-22T16:25:14.516Z,100408.78
2022-10-22T16:27:46.995Z,100405.56
2022-10-22T16:30:17.209Z,100416.84
2022-10-22T16:32:47.467Z,100416.13
2022-10-22T16:35:17.631Z,100424.50
2022-10-22T16:37:47.743Z,100424.56
2022-10-22T16:40:17.975Z,100432.97
2022-10-22T16:42:50.404Z,100438.50
2022-10-22T16:45:21.788Z,100438.56
2022-10-22T16:47:51.650Z,100437.34
2022-10-22T16:50:21.480Z,100449.34
2022-10-22T16:52:55.845Z,100449.78
2022-10-22T16:55:25.892Z,100460.22
2022-10-22T16:57:58.439Z,100453.97
2022-10-22T17:00:28.162Z,100453.09
2022-10-22T17:02:57.898Z,100457.03
2022-10-22T17:05:29.894Z,100461.53
2022-10-22T17:08:00.068Z,100454.13
2022-10-22T17:10:30.034Z,100466.00
2022-10-22T17:13:02.729Z,100471.09
2022-10-22T17:15:34.736Z,100469.88
2022-10-22T17:18:04.664Z,100476.72
2022-10-22T17:20:34.933Z,100483.16
2022-10-22T17:23:06.337Z,100487.13
2022-10-22T17:25:40.042Z,100495.44
2022-10-22T17:28:12.962Z,100492.25
2022-10-22T17:30:44.807Z,100490.66
2022-10-22T17:33:14.571Z,100491.47
2022-10-22T17:35:44.295Z,100494.31
2022-10-22T17:38:14.148Z,100506.66
2022-10-22T17:40:44.286Z,100503.44
2022-10-22T17:43:16.972Z,100503.44
2022-10-22T17:45:47.029Z,100507.00
2022-10-22T17:48:16.700Z,100502.69
2022-10-22T17:50:50.667Z,100514.53
2022-10-22T17:53:24.466Z,100517.31
2022-10-22T17:56:01.589Z,100502.16
2022-10-22T17:58:40.979Z,100513.63
2022-10-22T18:01:19.057Z,100513.16
2022-10-22T18:03:50.825Z,100511.94
2022-10-22T18:06:21.430Z,100509.56
2022-10-22T18:11:32.173Z,100514.72
2022-10-22T18:14:09.010Z,100517.94
2022-10-22T18:16:42.386Z,100519.91
2022-10-22T18:19:13.123Z,100515.94
2022-10-22T18:21:43.569Z,100521.88
2022-10-22T18:24:17.145Z,100520.31
2022-10-22T18:26:51.422Z,100517.84
2022-10-22T18:29:24.281Z,100519.19
2022-10-22T18:31:57.634Z,100519.19
2022-10-22T18:34:27.385Z,100516.50
2022-10-22T18:37:00.125Z,100518.91
2022-10-22T18:39:32.187Z,100517.75
2022-10-22T18:42:07.113Z,100527.75
2022-10-22T18:44:40.010Z,100521.75
2022-10-22T18:47:09.892Z,100530.06
2022-10-22T18:49:43.538Z,100528.50
2022-10-22T18:52:13.748Z,100526.59
2022-10-22T18:54:43.701Z,100537.34
2022-10-22T18:57:13.377Z,100534.22
2022-10-22T18:59:45.859Z,100539.34
2022-10-22T19:02:19.488Z,100530.53
2022-10-22T19:04:50.168Z,100529.41
2022-10-22T19:07:20.250Z,100534.25
2022-10-22T19:09:50.657Z,100542.56
2022-10-22T19:12:22.179Z,100525.38
2022-10-22T19:14:54.772Z,100535.75
2022-10-22T19:17:25.118Z,100540.94
2022-10-22T19:19:55.011Z,100537.75
2022-10-22T19:22:25.465Z,100539.69
2022-10-22T19:24:55.806Z,100548.06
2022-10-22T19:27:25.891Z,100542.47
2022-10-22T19:29:58.685Z,100540.78
2022-10-22T19:32:30.858Z,100549.94
2022-10-22T19:35:01.428Z,100557.16
2022-10-22T19:37:31.455Z,100555.06
2022-10-22T19:40:04.244Z,100555.81
2022-10-22T19:42:33.998Z,100558.72
2022-10-22T19:45:06.851Z,100566.69
2022-10-22T19:47:36.651Z,100569.56
2022-10-22T19:50:09.151Z,100573.47
2022-10-22T19:52:41.395Z,100573.91
2022-10-22T19:55:12.285Z,100569.13
2022-10-22T19:57:42.673Z,100571.53
2022-10-22T20:00:18.369Z,100581.13
2022-10-22T20:02:48.720Z,100577.09
2022-10-22T20:05:18.953Z,100577.53
2022-10-22T20:07:48.943Z,100583.53
2022-10-22T20:10:21.230Z,100598.34
2022-10-22T20:12:52.746Z,100597.59
2022-10-22T20:15:25.293Z,100582.84
2022-10-22T20:18:00.046Z,100586.00
2022-10-22T20:20:32.948Z,100589.22
2022-10-22T20:23:03.509Z,100592.41
2022-10-22T20:25:35.411Z,100595.25
2022-10-22T20:28:06.239Z,100603.97
2022-10-22T20:30:40.972Z,100602.38
2022-10-22T20:33:10.926Z,100607.22
2022-10-22T20:35:41.024Z,100602.44
2022-10-22T20:38:15.398Z,100619.19
2022-10-22T20:40:45.309Z,100607.97
2022-10-22T20:43:15.092Z,100609.56
2022-10-22T20:45:47.595Z,100596.44
2022-10-22T20:48:24.464Z,100604.00
2022-10-22T20:50:56.433Z,100602.47
2022-10-22T20:53:26.778Z,100610.88
2022-10-22T20:56:00.229Z,100609.31
2022-10-22T20:58:32.502Z,100607.72
2022-10-22T21:01:10.458Z,100595.44
2022-10-22T21:03:40.864Z,100602.66
2022-10-22T21:06:11.913Z,100611.03
2022-10-22T21:08:42.749Z,100606.31
2022-10-22T21:11:12.914Z,100609.91
2022-10-22T21:13:42.969Z,100614.31
2022-10-22T21:16:18.344Z,100614.31
2022-10-22T21:18:50.031Z,100613.53
2022-10-22T21:21:20.234Z,100609.19
2022-10-22T21:23:54.702Z,100606.84
2022-10-22T21:26:25.762Z,100606.50
2022-10-22T21:28:58.817Z,100608.47
2022-10-22T21:31:33.069Z,100616.06
2022-10-22T21:34:03.057Z,100620.44
2022-10-22T21:36:32.770Z,100616.53
2022-10-22T21:39:03.967Z,100614.16
2022-10-22T21:41:33.858Z,100618.53
2022-10-22T21:44:03.429Z,100617.75
2022-10-22T21:46:37.216Z,100615.03
2022-10-22T21:49:10.177Z,100616.59
2022-10-22T21:51:42.048Z,100623.38
2022-10-22T21:54:13.091Z,100622.19
2022-10-22T21:56:43.945Z,100617.03
2022-10-22T21:59:13.609Z,100619.84
2022-10-22T22:01:46.695Z,100621.84
2022-10-22T22:04:17.818Z,100617.91
2022-10-22T22:06:58.750Z,100618.69
2022-10-22T22:09:30.732Z,100615.91
2022-10-22T22:12:00.857Z,100624.66
2022-10-22T22:14:33.375Z,100622.63
2022-10-22T22:17:05.948Z,100620.66
2022-10-22T22:19:36.244Z,100623.03
2022-10-22T22:22:08.564Z,100611.94
2022-10-22T22:24:40.736Z,100616.69
2022-10-22T22:27:11.362Z,100624.66
2022-10-22T22:29:43.337Z,100621.47
2022-10-22T22:32:15.982Z,100612.34
2022-10-22T22:34:46.215Z,100615.13
2022-10-22T22:37:15.972Z,100613.56
2022-10-22T22:39:45.684Z,100622.69
2022-10-22T22:42:15.474Z,100620.31
2022-10-22T22:44:45.233Z,100621.53
2022-10-22T22:47:18.282Z,100625.06
2022-10-22T22:49:48.208Z,100634.22
2022-10-22T22:52:18.093Z,100630.22
2022-10-22T22:54:48.297Z,100626.66
2022-10-22T22:57:19.084Z,100627.84
2022-10-22T22:59:53.567Z,100621.50
2022-10-22T23:02:30.632Z,100633.03
2022-10-22T23:05:00.823Z,100615.94
2022-10-22T23:07:30.707Z,100617.94
2022-10-22T23:10:00.613Z,100617.91
2022-10-22T23:12:30.233Z,100625.06
2022-10-22T23:15:02.207Z,100619.88
2022-10-22T23:20:07.658Z,100625.00
2022-10-22T23:22:37.672Z,100622.66
2022-10-22T23:25:09.390Z,100624.19
2022-10-22T23:27:39.435Z,100622.97
2022-10-22T23:30:14.135Z,100621.41
2022-10-22T23:32:49.073Z,100624.53
2022-10-22T23:35:21.848Z,100629.28
2022-10-22T23:37:51.558Z,100622.13
2022-10-22T23:40:21.320Z,100618.97
2022-10-22T23:42:51.172Z,100628.06
2022-10-22T23:45:21.096Z,100625.69
2022-10-22T23:47:56.575Z,100628.88
2022-10-22T23:50:26.543Z,100622.94
2022-10-22T23:52:56.664Z,100619.72
2022-10-22T23:55:26.742Z,100614.56
2022-10-22T23:57:57.371Z,100620.09
